Time;durP1;ratioP1;P1;durP2;ratioP2;P2;SDS_P1;SDS_P2;PMS_P1;PMS_P2;Temp;Humidity;BMP_temperature;BMP_pressure;BME280_temperature;BME280_humidity;BME280_pressure;Samples;Min_cycle;Max_cycle;Signal;HPM_P1;HPM_P2
2023/04/23 00:01:26;;;;;;;;;11.50;9.75;;;;;;;;119937;1182;24731;-62
2023/04/23 00:03:56;;;;;;;;;14.75;13.50;;;;;;;;119720;1190;24879;-62
2023/04/23 00:06:25;;;;;;;;;13.33;13.33;;;;;;;;119885;1187;24965;-61
2023/04/23 00:08:54;;;;;;;;;16.75;15.00;;;;;;;;119909;1181;24798;-62
2023/04/23 00:11:22;;;;;;;;;18.50;14.00;;;;;;;;119914;1190;24991;-61
2023/04/23 00:13:50;;;;;;;;;18.00;16.00;;;;;;;;119890;1186;25501;-61
2023/04/23 00:16:20;;;;;;;;;15.00;12.00;;;;;;;;119890;1187;25130;-62
2023/04/23 00:18:48;;;;;;;;;18.00;13.00;;;;;;;;119941;1182;25175;-62
2023/04/23 00:21:16;;;;;;;;;15.00;12.67;;;;;;;;119939;1190;24823;-61
2023/04/23 00:23:45;;;;;;;;;21.75;14.25;;;;;;;;119910;1190;25035;-62
2023/04/23 00:26:13;;;;;;;;;17.75;16.75;;;;;;;;119891;1190;25449;-61
2023/04/23 00:28:41;;;;;;;;;18.25;17.50;;;;;;;;119910;1190;25614;-62
2023/04/23 00:31:09;;;;;;;;;12.00;10.00;;;;;;;;119906;1190;25108;-61
2023/04/23 00:33:37;;;;;;;;;17.50;14.00;;;;;;;;119935;1182;25356;-62
2023/04/23 00:36:06;;;;;;;;;15.00;14.33;;;;;;;;119929;1181;25263;-62
2023/04/23 00:38:34;;;;;;;;;17.25;14.50;;;;;;;;119915;1186;25355;-62
2023/04/23 00:41:02;;;;;;;;;15.50;15.25;;;;;;;;119909;1182;24938;-61
2023/04/23 00:43:31;;;;;;;;;16.00;13.00;;;;;;;;119950;1182;24878;-62
2023/04/23 00:45:59;;;;;;;;;13.00;12.00;;;;;;;;119911;1190;24928;-61
2023/04/23 00:48:28;;;;;;;;;16.50;15.50;;;;;;;;119906;1190;25222;-62
2023/04/23 00:51:02;;;;;;;;;16.00;15.67;;;;;;;;119906;1190;24796;-61
2023/04/23 00:53:32;;;;;;;;;14.67;12.33;;;;;;;;119911;1190;25317;-62
2023/04/23 00:56:03;;;;;;;;;14.00;13.25;;;;;;;;119717;1188;25063;-62
2023/04/23 00:58:31;;;;;;;;;17.00;16.00;;;;;;;;119920;1190;24962;-62
2023/04/23 01:01:03;;;;;;;;;14.33;14.33;;;;;;;;119870;1190;25728;-61
2023/04/23 01:03:35;;;;;;;;;11.67;11.67;;;;;;;;119735;1190;25601;-62
2023/04/23 01:06:04;;;;;;;;;19.00;16.00;;;;;;;;119892;1190;24929;-61
2023/04/23 01:08:33;;;;;;;;;15.25;13.25;;;;;;;;119903;1190;24816;-62
2023/04/23 01:11:02;;;;;;;;;18.25;14.50;;;;;;;;119746;1190;24798;-62
2023/04/23 01:13:30;;;;;;;;;16.75;13.00;;;;;;;;119897;1190;24893;-62
2023/04/23 01:15:58;;;;;;;;;11.00;11.00;;;;;;;;119898;1190;25351;-61
2023/04/23 01:18:26;;;;;;;;;17.00;14.75;;;;;;;;119862;1190;24727;-61
2023/04/23 01:20:54;;;;;;;;;16.75;14.00;;;;;;;;119884;1190;24771;-62
2023/04/23 01:23:23;;;;;;;;;18.00;15.75;;;;;;;;119914;1190;24803;-61
2023/04/23 01:25:51;;;;;;;;;14.75;12.00;;;;;;;;119915;1190;25305;-62
2023/04/23 01:28:20;;;;;;;;;17.25;14.75;;;;;;;;119940;1181;25925;-62
2023/04/23 01:30:49;;;;;;;;;13.25;13.25;;;;;;;;119911;1190;25196;-62
2023/04/23 01:33:18;;;;;;;;;16.00;11.67;;;;;;;;119871;1190;24953;-62
2023/04/23 01:35:48;;;;;;;;;8.50;7.25;;;;;;;;119722;1190;25185;-62
2023/04/23 01:38:17;;;;;;;;;13.00;13.00;;;;;;;;119897;1190;24924;-61
2023/04/23 01:40:45;;;;;;;;;15.00;13.00;;;;;;;;119926;1190;25656;-61
2023/04/23 01:43:14;;;;;;;;;15.25;14.25;;;;;;;;119910;1190;24779;-62
2023/04/23 01:45:43;;;;;;;;;11.67;7.67;;;;;;;;119900;1190;25247;-61
2023/04/23 01:48:11;;;;;;;;;12.67;11.67;;;;;;;;119909;1190;24839;-61
2023/04/23 01:50:40;;;;;;;;;11.33;10.67;;;;;;;;119912;1190;25370;-61
2023/04/23 01:53:08;;;;;;;;;11.33;9.33;;;;;;;;119924;1190;25626;-62
2023/04/23 01:55:41;;;;;;;;;10.50;10.50;;;;;;;;119903;1190;24796;-61
2023/04/23 01:58:09;;;;;;;;;12.00;10.67;;;;;;;;119904;1182;25081;-61
2023/04/23 02:00:37;;;;;;;;;12.75;10.50;;;;;;;;119900;1190;25655;-61
2023/04/23 02:03:05;;;;;;;;;10.75;10.75;;;;;;;;119899;1190;26486;-61
2023/04/23 02:05:35;;;;;;;;;14.00;14.00;;;;;;;;119936;1182;25450;-61
2023/04/23 02:08:03;;;;;;;;;11.33;9.00;;;;;;;;119754;1190;24971;-61
2023/04/23 02:10:31;;;;;;;;;12.75;11.50;;;;;;;;119912;1190;25658;-61
2023/04/23 02:13:00;;;;;;;;;13.75;11.25;;;;;;;;119918;1182;25352;-61
2023/04/23 02:15:29;;;;;;;;;13.33;12.00;;;;;;;;119913;1190;25528;-61
2023/04/23 02:17:57;;;;;;;;;12.50;11.00;;;;;;;;119936;1190;24976;-61
2023/04/23 02:20:25;;;;;;;;;11.00;9.00;;;;;;;;119918;1190;25671;-61
2023/04/23 02:22:54;;;;;;;;;11.75;9.00;;;;;;;;119913;1190;25525;-61
2023/04/23 02:25:22;;;;;;;;;11.67;10.33;;;;;;;;119917;1182;25535;-61
2023/04/23 02:27:50;;;;;;;;;12.67;9.67;;;;;;;;119716;1190;25078;-61
2023/04/23 02:30:19;;;;;;;;;15.00;12.67;;;;;;;;119910;1190;25673;-61
2023/04/23 02:32:47;;;;;;;;;10.00;9.50;;;;;;;;119940;1181;25166;-61
2023/04/23 02:35:15;;;;;;;;;15.67;13.67;;;;;;;;119922;1190;24848;-61
2023/04/23 02:37:43;;;;;;;;;14.33;12.67;;;;;;;;119916;1190;24916;-61
2023/04/23 02:40:11;;;;;;;;;19.75;13.00;;;;;;;;119905;1190;25350;-61
2023/04/23 02:42:39;;;;;;;;;18.00;12.67;;;;;;;;119906;1182;25407;-61
2023/04/23 02:45:11;;;;;;;;;13.00;12.00;;;;;;;;119896;1190;25322;-61
2023/04/23 02:47:39;;;;;;;;;9.00;9.00;;;;;;;;119729;1190;25062;-61
2023/04/23 02:50:07;;;;;;;;;13.67;9.67;;;;;;;;119919;1190;25018;-61
2023/04/23 02:52:36;;;;;;;;;15.75;15.00;;;;;;;;119928;1190;25377;-61
2023/04/23 02:55:05;;;;;;;;;17.67;13.67;;;;;;;;119938;1182;26135;-61
2023/04/23 02:57:34;;;;;;;;;16.00;14.75;;;;;;;;119727;1184;24928;-61
2023/04/23 03:00:05;;;;;;;;;15.00;13.00;;;;;;;;119918;1190;25559;-61
2023/04/23 03:02:34;;;;;;;;;13.50;11.00;;;;;;;;119738;1190;25689;-61
2023/04/23 03:05:04;;;;;;;;;10.75;10.25;;;;;;;;119936;1190;25519;-61
2023/04/23 03:07:32;;;;;;;;;14.25;12.00;;;;;;;;119894;1182;25650;-61
2023/04/23 03:10:00;;;;;;;;;10.75;10.00;;;;;;;;119928;1182;24948;-61
2023/04/23 03:12:28;;;;;;;;;12.00;10.50;;;;;;;;119922;1190;24993;-61
2023/04/23 03:14:56;;;;;;;;;11.67;11.00;;;;;;;;119920;1190;25179;-61
2023/04/23 03:17:24;;;;;;;;;11.00;9.33;;;;;;;;119922;1190;25212;-61
2023/04/23 03:19:52;;;;;;;;;14.25;12.00;;;;;;;;119908;1190;25513;-61
2023/04/23 03:22:21;;;;;;;;;13.50;12.50;;;;;;;;119921;1190;24696;-61
2023/04/23 03:24:49;;;;;;;;;14.67;12.67;;;;;;;;119876;1190;24718;-61
2023/04/23 03:27:17;;;;;;;;;12.33;11.33;;;;;;;;119899;1190;25499;-61
2023/04/23 03:29:46;;;;;;;;;10.00;9.00;;;;;;;;119935;1190;25511;-61
2023/04/23 03:32:14;;;;;;;;;8.67;8.00;;;;;;;;119899;1182;24922;-62
2023/04/23 03:34:42;;;;;;;;;8.67;7.00;;;;;;;;119932;1190;25223;-62
2023/04/23 03:37:10;;;;;;;;;12.00;11.50;;;;;;;;119908;1190;25562;-61
2023/04/23 03:39:39;;;;;;;;;12.00;11.00;;;;;;;;119911;1190;25306;-62
2023/04/23 03:42:07;;;;;;;;;8.50;8.50;;;;;;;;119920;1190;25643;-61
2023/04/23 03:44:35;;;;;;;;;10.67;9.00;;;;;;;;119939;1186;25678;-61
2023/04/23 03:47:03;;;;;;;;;13.00;12.25;;;;;;;;119899;1190;25468;-62
2023/04/23 03:49:32;;;;;;;;;9.00;9.00;;;;;;;;119857;1191;25217;-61
2023/04/23 03:52:00;;;;;;;;;10.50;10.25;;;;;;;;119899;1182;24690;-62
2023/04/23 03:54:28;;;;;;;;;10.00;10.00;;;;;;;;119910;1182;25291;-62
2023/04/23 03:56:56;;;;;;;;;12.67;10.33;;;;;;;;119900;1191;25353;-62
2023/04/23 03:59:24;;;;;;;;;12.50;9.00;;;;;;;;119914;1191;24902;-61
2023/04/23 04:01:53;;;;;;;;;13.50;11.75;;;;;;;;119891;1188;25453;-62
2023/04/23 04:04:21;;;;;;;;;8.50;7.75;;;;;;;;119898;1182;25281;-62
2023/04/23 04:06:49;;;;;;;;;13.33;13.00;;;;;;;;119925;1182;24786;-62
2023/04/23 04:09:18;;;;;;;;;5.00;5.00;;;;;;;;119912;1187;25666;-62
2023/04/23 04:11:46;;;;;;;;;13.00;11.00;;;;;;;;119911;1182;25287;-61
2023/04/23 04:14:14;;;;;;;;;13.00;8.67;;;;;;;;119723;1191;25078;-62
2023/04/23 04:16:42;;;;;;;;;15.00;11.50;;;;;;;;119913;1182;25219;-62
2023/04/23 04:19:10;;;;;;;;;15.67;11.67;;;;;;;;119901;1191;24831;-61
2023/04/23 04:21:38;;;;;;;;;11.25;10.25;;;;;;;;119918;1191;24853;-62
2023/04/23 04:24:07;;;;;;;;;16.50;13.00;;;;;;;;119915;1191;24799;-61
2023/04/23 04:26:36;;;;;;;;;12.67;11.00;;;;;;;;119900;1191;25409;-62
2023/04/23 04:29:04;;;;;;;;;16.67;12.33;;;;;;;;119929;1182;24911;-62
2023/04/23 04:31:33;;;;;;;;;13.50;13.25;;;;;;;;119890;1191;25417;-62
2023/04/23 04:34:01;;;;;;;;;12.00;10.50;;;;;;;;119725;1191;25352;-62
2023/04/23 04:36:30;;;;;;;;;11.75;10.50;;;;;;;;119711;1191;25322;-62
2023/04/23 04:38:59;;;;;;;;;11.33;11.33;;;;;;;;119887;1191;26052;-62
2023/04/23 04:41:27;;;;;;;;;13.33;12.00;;;;;;;;119895;1191;25563;-62
2023/04/23 04:43:57;;;;;;;;;18.33;13.33;;;;;;;;119919;1191;25168;-62
2023/04/23 04:46:27;;;;;;;;;15.25;12.50;;;;;;;;119920;1182;25143;-62
2023/04/23 04:48:56;;;;;;;;;18.00;13.00;;;;;;;;119884;1182;25135;-62
2023/04/23 04:51:25;;;;;;;;;10.50;9.75;;;;;;;;119932;1186;24707;-62
2023/04/23 04:53:53;;;;;;;;;16.50;13.00;;;;;;;;119922;1182;25080;-62
2023/04/23 04:56:22;;;;;;;;;16.33;13.67;;;;;;;;119923;1181;25250;-62
2023/04/23 04:58:51;;;;;;;;;15.00;14.25;;;;;;;;119875;1190;24835;-62
2023/04/23 05:01:20;;;;;;;;;14.50;13.00;;;;;;;;119713;1183;25447;-62
2023/04/23 05:03:49;;;;;;;;;15.75;14.25;;;;;;;;119907;1190;25302;-62
2023/04/23 05:06:17;;;;;;;;;15.50;14.00;;;;;;;;119724;1190;25381;-62
2023/04/23 05:08:47;;;;;;;;;15.00;11.25;;;;;;;;119915;1190;25066;-61
2023/04/23 05:11:16;;;;;;;;;13.75;10.75;;;;;;;;119941;1186;24806;-62
2023/04/23 05:13:47;;;;;;;;;8.00;7.75;;;;;;;;119734;1190;25704;-62
2023/04/23 05:16:16;;;;;;;;;15.00;13.33;;;;;;;;119759;1189;25508;-61
2023/04/23 05:18:44;;;;;;;;;18.00;16.00;;;;;;;;119898;1180;25503;-61
2023/04/23 05:21:14;;;;;;;;;13.50;12.75;;;;;;;;119946;1186;25238;-61
2023/04/23 05:23:43;;;;;;;;;19.00;17.00;;;;;;;;119947;1186;25064;-61
2023/04/23 05:26:11;;;;;;;;;17.00;17.00;;;;;;;;119899;1183;25609;-62
2023/04/23 05:28:39;;;;;;;;;19.50;18.00;;;;;;;;119894;1183;24864;-62
2023/04/23 05:31:07;;;;;;;;;17.75;15.25;;;;;;;;119906;1190;25603;-61
2023/04/23 05:33:35;;;;;;;;;16.75;15.75;;;;;;;;119931;1186;25321;-62
2023/04/23 05:36:17;;;;;;;;;15.67;15.00;;;;;;;;119931;1183;24745;-61
2023/04/23 05:38:45;;;;;;;;;19.75;17.00;;;;;;;;119919;1186;25431;-62
2023/04/23 05:41:14;;;;;;;;;29.50;17.50;;;;;;;;119885;1186;25243;-60
2023/04/23 05:43:43;;;;;;;;;19.00;15.50;;;;;;;;119911;1187;24959;-60
2023/04/23 05:46:11;;;;;;;;;21.33;20.00;;;;;;;;119849;1190;25294;-60
2023/04/23 05:48:39;;;;;;;;;20.00;18.00;;;;;;;;119715;1190;24939;-59
2023/04/23 05:51:07;;;;;;;;;23.00;19.00;;;;;;;;119931;1186;24855;-60
2023/04/23 05:53:36;;;;;;;;;22.50;21.00;;;;;;;;119961;1186;24871;-60
2023/04/23 05:56:04;;;;;;;;;26.00;20.75;;;;;;;;119872;1187;25594;-60
2023/04/23 05:58:33;;;;;;;;;27.00;20.00;;;;;;;;119901;1190;24903;-60
2023/04/23 06:01:01;;;;;;;;;23.00;17.33;;;;;;;;119922;1177;24848;-60
2023/04/23 06:03:30;;;;;;;;;19.50;17.00;;;;;;;;119907;1190;25668;-60
2023/04/23 06:05:58;;;;;;;;;21.75;18.50;;;;;;;;119922;1183;24986;-60
2023/04/23 06:08:27;;;;;;;;;19.25;16.50;;;;;;;;119886;1188;24826;-60
2023/04/23 06:10:55;;;;;;;;;15.50;14.00;;;;;;;;119926;1186;25411;-65
2023/04/23 06:13:23;;;;;;;;;18.50;16.00;;;;;;;;119937;1186;24949;-64
2023/04/23 06:15:51;;;;;;;;;19.50;17.25;;;;;;;;119851;1182;25460;-61
2023/04/23 06:18:19;;;;;;;;;22.00;17.25;;;;;;;;119951;1186;25211;-64
2023/04/23 06:20:50;;;;;;;;;27.25;23.00;;;;;;;;119903;1177;24799;-68
2023/04/23 06:23:18;;;;;;;;;30.00;23.50;;;;;;;;119920;1181;24875;-67
2023/04/23 06:25:46;;;;;;;;;26.50;23.25;;;;;;;;119927;1182;25333;-69
2023/04/23 06:28:14;;;;;;;;;23.75;18.00;;;;;;;;119912;1190;24971;-67
2023/04/23 06:30:43;;;;;;;;;26.67;22.33;;;;;;;;119946;1186;24738;-64
2023/04/23 06:33:11;;;;;;;;;25.25;23.25;;;;;;;;119905;1190;24686;-65
2023/04/23 06:35:39;;;;;;;;;18.50;18.50;;;;;;;;119905;1182;25346;-64
2023/04/23 06:38:08;;;;;;;;;20.00;16.33;;;;;;;;119912;1190;25435;-65
2023/04/23 06:40:36;;;;;;;;;17.75;16.25;;;;;;;;119906;1190;24878;-65
2023/04/23 06:43:04;;;;;;;;;17.00;16.00;;;;;;;;119905;1190;25549;-64
2023/04/23 06:45:33;;;;;;;;;19.50;18.00;;;;;;;;119908;1190;25084;-62
2023/04/23 06:48:01;;;;;;;;;16.33;15.67;;;;;;;;119898;1190;24962;-62
2023/04/23 06:50:29;;;;;;;;;25.25;17.25;;;;;;;;119885;1190;25641;-63
2023/04/23 06:52:58;;;;;;;;;19.67;15.67;;;;;;;;119908;1190;25147;-62
2023/04/23 06:55:27;;;;;;;;;21.67;18.33;;;;;;;;119845;1190;25403;-63
2023/04/23 06:57:56;;;;;;;;;21.00;16.50;;;;;;;;119962;1186;25784;-63
2023/04/23 07:00:25;;;;;;;;;14.67;13.33;;;;;;;;119770;1189;24993;-63
2023/04/23 07:02:53;;;;;;;;;22.00;19.33;;;;;;;;119938;1186;25493;-63
2023/04/23 07:05:21;;;;;;;;;26.75;20.50;;;;;;;;119876;1190;25299;-64
2023/04/23 07:07:50;;;;;;;;;23.75;19.75;;;;;;;;119898;1190;25096;-63
2023/04/23 07:10:18;;;;;;;;;20.33;18.00;;;;;;;;119895;1186;25831;-63
2023/04/23 07:12:47;;;;;;;;;18.50;16.75;;;;;;;;119910;1182;25637;-63
2023/04/23 07:15:15;;;;;;;;;21.00;18.00;;;;;;;;119888;1190;24814;-63
2023/04/23 07:17:43;;;;;;;;;23.00;19.50;;;;;;;;119899;1182;24925;-73
2023/04/23 07:20:11;;;;;;;;;18.00;13.75;;;;;;;;119940;1182;24754;-68
2023/04/23 07:22:40;;;;;;;;;24.00;19.75;;;;;;;;119904;1190;26212;-62
2023/04/23 07:25:08;;;;;;;;;20.50;18.50;;;;;;;;119973;1186;24707;-60
2023/04/23 07:27:36;;;;;;;;;23.00;18.67;;;;;;;;119911;1186;24993;-60
2023/04/23 07:30:05;;;;;;;;;25.00;18.67;;;;;;;;119929;1186;25406;-60
2023/04/23 07:32:33;;;;;;;;;21.50;17.25;;;;;;;;119888;1190;24909;-60
2023/04/23 07:35:03;;;;;;;;;21.50;17.00;;;;;;;;119918;1186;25584;-61
2023/04/23 07:37:31;;;;;;;;;24.00;17.67;;;;;;;;119899;1190;25053;-61
2023/04/23 07:40:01;;;;;;;;;22.67;19.00;;;;;;;;119899;1186;25043;-61
2023/04/23 07:42:29;;;;;;;;;19.67;17.67;;;;;;;;119957;1186;24801;-61
2023/04/23 07:44:57;;;;;;;;;19.50;17.75;;;;;;;;119889;1179;26109;-60
2023/04/23 07:47:25;;;;;;;;;22.25;17.00;;;;;;;;119911;1186;25619;-61
2023/04/23 07:49:54;;;;;;;;;20.33;16.67;;;;;;;;119893;1190;24875;-61
2023/04/23 07:52:22;;;;;;;;;21.50;15.25;;;;;;;;119976;1186;25653;-61
2023/04/23 07:54:50;;;;;;;;;24.33;17.33;;;;;;;;119962;1181;25579;-61
2023/04/23 07:57:19;;;;;;;;;18.00;17.25;;;;;;;;119910;1182;25397;-59
2023/04/23 07:59:47;;;;;;;;;18.00;16.00;;;;;;;;119961;1186;25587;-59
2023/04/23 08:02:17;;;;;;;;;22.33;18.67;;;;;;;;119930;1177;25272;-59
2023/04/23 08:04:45;;;;;;;;;14.00;11.67;;;;;;;;119899;1182;25728;-60
2023/04/23 08:07:14;;;;;;;;;20.67;19.67;;;;;;;;119919;1186;25221;-60
2023/04/23 08:09:42;;;;;;;;;21.33;18.33;;;;;;;;119890;1190;24732;-60
2023/04/23 08:12:10;;;;;;;;;23.25;20.75;;;;;;;;119931;1181;25683;-60
2023/04/23 08:14:39;;;;;;;;;19.25;18.00;;;;;;;;119905;1190;25588;-62
2023/04/23 08:17:07;;;;;;;;;21.50;19.25;;;;;;;;119934;1186;25029;-59
2023/04/23 08:19:35;;;;;;;;;19.25;17.00;;;;;;;;119919;1186;26001;-61
2023/04/23 08:22:03;;;;;;;;;18.00;17.75;;;;;;;;119923;1181;25149;-61
2023/04/23 08:24:34;;;;;;;;;21.00;17.67;;;;;;;;119915;1186;24961;-61
2023/04/23 08:27:02;;;;;;;;;21.25;18.50;;;;;;;;119869;1190;25012;-61
2023/04/23 08:29:30;;;;;;;;;23.75;20.25;;;;;;;;119881;1187;25466;-61
2023/04/23 08:31:58;;;;;;;;;24.00;19.33;;;;;;;;119919;1186;24982;-61
2023/04/23 08:34:26;;;;;;;;;17.75;16.75;;;;;;;;119893;1181;24984;-62
2023/04/23 08:36:54;;;;;;;;;22.33;18.67;;;;;;;;119886;1190;25195;-61
2023/04/23 08:39:23;;;;;;;;;16.00;14.25;;;;;;;;119937;1182;24750;-61
2023/04/23 08:41:54;;;;;;;;;18.00;18.00;;;;;;;;119916;1190;25186;-61
2023/04/23 08:44:25;;;;;;;;;17.25;17.25;;;;;;;;119897;1190;25189;-62
2023/04/23 08:46:54;;;;;;;;;19.00;16.33;;;;;;;;119888;1179;25524;-61
2023/04/23 08:49:23;;;;;;;;;21.25;19.75;;;;;;;;119898;1182;24728;-60
2023/04/23 08:51:52;;;;;;;;;22.50;19.00;;;;;;;;119898;1186;24665;-61
2023/04/23 08:54:25;;;;;;;;;25.00;20.00;;;;;;;;119908;1182;25655;-61
2023/04/23 08:56:57;;;;;;;;;23.67;20.00;;;;;;;;119890;1187;25137;-61
2023/04/23 08:59:29;;;;;;;;;16.50;16.50;;;;;;;;119718;1188;25597;-61
2023/04/23 09:02:00;;;;;;;;;22.00;19.00;;;;;;;;119959;1186;25428;-62
2023/04/23 09:04:30;;;;;;;;;24.50;19.75;;;;;;;;119954;1186;24765;-61
2023/04/23 09:06:59;;;;;;;;;19.67;17.00;;;;;;;;119903;1190;25420;-61
2023/04/23 09:09:28;;;;;;;;;20.50;18.00;;;;;;;;119848;1188;25209;-64
2023/04/23 09:11:57;;;;;;;;;18.00;18.00;;;;;;;;119917;1187;24912;-64
2023/04/23 09:14:25;;;;;;;;;23.75;19.50;;;;;;;;119934;1186;25129;-63
2023/04/23 09:16:54;;;;;;;;;18.75;17.75;;;;;;;;119910;1190;25459;-62
2023/04/23 09:19:26;;;;;;;;;20.25;19.50;;;;;;;;119918;1186;24861;-64
2023/04/23 09:21:56;;;;;;;;;18.67;18.33;;;;;;;;119901;1186;24783;-64
2023/04/23 09:24:25;;;;;;;;;24.33;20.67;;;;;;;;119919;1182;25052;-65
2023/04/23 09:26:53;;;;;;;;;21.50;19.00;;;;;;;;119918;1187;25042;-65
2023/04/23 09:29:22;;;;;;;;;25.67;22.33;;;;;;;;119823;1190;25050;-65
2023/04/23 09:31:55;;;;;;;;;22.50;17.25;;;;;;;;119928;1182;24892;-65
2023/04/23 09:34:24;;;;;;;;;18.75;18.00;;;;;;;;119896;1190;24699;-65
2023/04/23 09:36:52;;;;;;;;;23.25;20.25;;;;;;;;119691;1188;25409;-64
2023/04/23 09:39:21;;;;;;;;;19.00;16.25;;;;;;;;119880;1187;25208;-64
2023/04/23 09:41:53;;;;;;;;;20.67;18.33;;;;;;;;119886;1182;25182;-64
2023/04/23 09:44:21;;;;;;;;;25.00;23.67;;;;;;;;119893;1190;25580;-64
2023/04/23 09:46:50;;;;;;;;;18.75;15.75;;;;;;;;119877;1182;24990;-60
2023/04/23 09:49:18;;;;;;;;;20.50;18.25;;;;;;;;119927;1186;24891;-61
2023/04/23 09:51:48;;;;;;;;;21.50;19.50;;;;;;;;119854;1187;24823;-62
2023/04/23 09:54:19;;;;;;;;;21.75;20.50;;;;;;;;119891;1187;25626;-63
2023/04/23 09:56:55;;;;;;;;;23.25;20.25;;;;;;;;119961;1181;25559;-62
2023/04/23 09:59:24;;;;;;;;;20.67;18.67;;;;;;;;119901;1182;25167;-61
2023/04/23 10:02:12;;;;;;;;;20.50;19.75;;;;;;;;119906;1190;25660;-60
2023/04/23 10:04:41;;;;;;;;;22.50;20.50;;;;;;;;119915;1177;24847;-65
2023/04/23 10:07:12;;;;;;;;;27.00;20.33;;;;;;;;119884;1186;25030;-65
2023/04/23 10:09:43;;;;;;;;;21.25;21.00;;;;;;;;119886;1190;25411;-69
2023/04/23 10:12:13;;;;;;;;;23.75;18.75;;;;;;;;119805;1182;26130;-65
2023/04/23 10:14:45;;;;;;;;;24.00;20.25;;;;;;;;119853;1179;24871;-65
2023/04/23 10:17:13;;;;;;;;;24.33;22.00;;;;;;;;119965;1186;24999;-69
2023/04/23 10:19:43;;;;;;;;;24.67;15.33;;;;;;;;119864;1187;25643;-66
2023/04/23 10:22:13;;;;;;;;;25.00;19.67;;;;;;;;119865;1179;24734;-66
2023/04/23 10:24:45;;;;;;;;;18.50;15.50;;;;;;;;119733;1190;25100;-66
2023/04/23 10:27:16;;;;;;;;;26.00;21.67;;;;;;;;119893;1190;25464;-65
2023/04/23 10:30:00;;;;;;;;;22.50;21.25;;;;;;;;119845;1187;24791;-65
2023/04/23 10:32:30;;;;;;;;;18.75;17.50;;;;;;;;119898;1187;25104;-66
2023/04/23 10:34:58;;;;;;;;;23.75;21.75;;;;;;;;119884;1183;25511;-68
2023/04/23 10:37:27;;;;;;;;;19.75;17.00;;;;;;;;119930;1190;25217;-68
2023/04/23 10:40:00;;;;;;;;;20.00;20.00;;;;;;;;119861;1188;25044;-64
2023/04/23 10:42:29;;;;;;;;;22.50;20.50;;;;;;;;119826;1190;24663;-63
2023/04/23 10:44:57;;;;;;;;;22.50;18.25;;;;;;;;119881;1178;25222;-67
2023/04/23 10:47:34;;;;;;;;;24.00;19.50;;;;;;;;119891;1182;24735;-67
2023/04/23 10:50:22;;;;;;;;;19.75;18.75;;;;;;;;119860;1187;24886;-73
2023/04/23 10:52:52;;;;;;;;;22.25;16.75;;;;;;;;119917;1190;24781;-72
2023/04/23 10:55:26;;;;;;;;;18.75;18.25;;;;;;;;119935;1178;24679;-72
2023/04/23 10:58:03;;;;;;;;;18.00;17.67;;;;;;;;119907;1186;24855;-74
2023/04/23 11:00:40;;;;;;;;;16.50;15.00;;;;;;;;119878;1187;25242;-68
2023/04/23 11:03:31;;;;;;;;;19.00;19.00;;;;;;;;119879;1190;25450;-68
2023/04/23 11:06:03;;;;;;;;;18.00;16.00;;;;;;;;119916;1186;25519;-68
2023/04/23 11:08:34;;;;;;;;;20.75;20.00;;;;;;;;119874;1190;25049;-68
2023/04/23 11:11:07;;;;;;;;;15.75;15.25;;;;;;;;119901;1190;25491;-68
2023/04/23 11:13:51;;;;;;;;;16.25;13.75;;;;;;;;119855;1187;25050;-68
2023/04/23 11:16:21;;;;;;;;;17.75;14.00;;;;;;;;119842;1177;25003;-67
2023/04/23 11:18:58;;;;;;;;;17.00;15.33;;;;;;;;119918;1190;25150;-67
2023/04/23 11:22:05;;;;;;;;;16.00;16.00;;;;;;;;119939;1177;25287;-67
2023/04/23 11:24:44;;;;;;;;;15.50;15.50;;;;;;;;119884;1179;25205;-66
2023/04/23 11:27:16;;;;;;;;;11.00;9.75;;;;;;;;119876;1182;24981;-67
2023/04/23 11:29:45;;;;;;;;;16.67;14.33;;;;;;;;119903;1187;25627;-66
2023/04/23 11:32:15;;;;;;;;;11.00;10.00;;;;;;;;119710;1190;25390;-66
2023/04/23 11:34:46;;;;;;;;;12.67;11.33;;;;;;;;119888;1182;25271;-66
2023/04/23 11:37:16;;;;;;;;;12.33;12.33;;;;;;;;119926;1177;25323;-66
2023/04/23 11:39:46;;;;;;;;;19.67;16.33;;;;;;;;119907;1183;25751;-67
2023/04/23 11:42:16;;;;;;;;;15.50;14.00;;;;;;;;119702;1190;24895;-66
2023/04/23 11:44:45;;;;;;;;;15.00;14.33;;;;;;;;119705;1190;25149;-67
2023/04/23 11:47:17;;;;;;;;;20.50;14.75;;;;;;;;119898;1182;25185;-67
2023/04/23 11:49:47;;;;;;;;;12.67;11.33;;;;;;;;119884;1190;25073;-65
2023/04/23 11:52:15;;;;;;;;;16.50;15.00;;;;;;;;119845;1178;24773;-65
2023/04/23 11:54:46;;;;;;;;;15.00;14.25;;;;;;;;119832;1178;25455;-65
2023/04/23 11:57:14;;;;;;;;;21.00;17.50;;;;;;;;119920;1190;24925;-64
2023/04/23 11:59:46;;;;;;;;;18.00;18.00;;;;;;;;119928;1190;25655;-67
2023/04/23 12:02:15;;;;;;;;;15.33;12.67;;;;;;;;119881;1187;25383;-65
2023/04/23 12:04:43;;;;;;;;;15.50;14.50;;;;;;;;119908;1190;25034;-66
2023/04/23 12:07:17;;;;;;;;;18.75;15.75;;;;;;;;119940;1186;25477;-65
2023/04/23 12:09:58;;;;;;;;;17.67;16.33;;;;;;;;119921;1186;25060;-67
2023/04/23 12:12:34;;;;;;;;;17.50;15.00;;;;;;;;119822;1187;24827;-65
2023/04/23 12:15:06;;;;;;;;;18.25;16.50;;;;;;;;119732;1184;25188;-65
2023/04/23 12:17:34;;;;;;;;;18.50;16.00;;;;;;;;119877;1187;24990;-65
2023/04/23 12:20:06;;;;;;;;;15.00;15.00;;;;;;;;119840;1191;25446;-66
2023/04/23 12:22:34;;;;;;;;;16.75;15.00;;;;;;;;119893;1191;24875;-66
2023/04/23 12:25:08;;;;;;;;;14.50;14.00;;;;;;;;119721;1191;24957;-66
2023/04/23 12:27:41;;;;;;;;;16.50;16.50;;;;;;;;119886;1182;25143;-63
2023/04/23 12:30:10;;;;;;;;;19.33;17.00;;;;;;;;119737;1191;25340;-64
2023/04/23 12:32:40;;;;;;;;;23.25;16.25;;;;;;;;119867;1191;24874;-64
2023/04/23 12:35:09;;;;;;;;;17.33;15.00;;;;;;;;119713;1191;24727;-64
2023/04/23 12:37:38;;;;;;;;;13.50;12.00;;;;;;;;119898;1191;25308;-64
2023/04/23 12:40:06;;;;;;;;;16.00;14.00;;;;;;;;119925;1182;24889;-64
2023/04/23 12:42:35;;;;;;;;;16.75;15.25;;;;;;;;119734;1191;25151;-65
2023/04/23 12:45:06;;;;;;;;;18.75;15.25;;;;;;;;119747;1191;25197;-63
2023/04/23 12:47:34;;;;;;;;;17.00;14.75;;;;;;;;119719;1184;24916;-63
2023/04/23 12:50:04;;;;;;;;;20.25;17.50;;;;;;;;119903;1181;25517;-64
2023/04/23 12:52:32;;;;;;;;;18.33;17.33;;;;;;;;119905;1190;25736;-62
2023/04/23 12:55:03;;;;;;;;;19.75;18.25;;;;;;;;119886;1190;25208;-61
2023/04/23 12:57:32;;;;;;;;;16.67;15.00;;;;;;;;119732;1190;25110;-62
2023/04/23 13:00:00;;;;;;;;;17.00;16.67;;;;;;;;119905;1182;25577;-63
2023/04/23 13:02:28;;;;;;;;;19.75;16.00;;;;;;;;119925;1190;25044;-62
2023/04/23 13:04:59;;;;;;;;;16.25;13.50;;;;;;;;119904;1190;25262;-64
2023/04/23 13:07:28;;;;;;;;;20.00;18.00;;;;;;;;119905;1190;25296;-63
2023/04/23 13:09:58;;;;;;;;;17.50;15.25;;;;;;;;119897;1190;25438;-63
2023/04/23 13:12:26;;;;;;;;;20.00;16.25;;;;;;;;119921;1182;24938;-63
2023/04/23 13:14:55;;;;;;;;;19.00;17.50;;;;;;;;119948;1190;25537;-63
2023/04/23 13:17:25;;;;;;;;;14.25;14.25;;;;;;;;119914;1190;25179;-63
2023/04/23 13:19:54;;;;;;;;;21.25;18.00;;;;;;;;119926;1190;24786;-63
2023/04/23 13:22:27;;;;;;;;;22.25;20.50;;;;;;;;119898;1190;25424;-63
2023/04/23 13:24:58;;;;;;;;;16.33;14.33;;;;;;;;119919;1182;25218;-64
2023/04/23 13:27:28;;;;;;;;;17.33;16.67;;;;;;;;119728;1189;25061;-66
2023/04/23 13:29:57;;;;;;;;;13.67;13.33;;;;;;;;119718;1184;24707;-66
2023/04/23 13:32:30;;;;;;;;;16.50;16.25;;;;;;;;119937;1184;24834;-70
2023/04/23 13:35:01;;;;;;;;;19.33;17.67;;;;;;;;119908;1190;24786;-68
2023/04/23 13:37:30;;;;;;;;;17.25;16.25;;;;;;;;119897;1190;25721;-68
2023/04/23 13:39:58;;;;;;;;;13.33;13.33;;;;;;;;119880;1190;25213;-67
2023/04/23 13:42:27;;;;;;;;;18.00;16.00;;;;;;;;119915;1190;25438;-68
2023/04/23 13:44:55;;;;;;;;;20.00;17.50;;;;;;;;119908;1190;24844;-68
2023/04/23 13:47:25;;;;;;;;;15.67;14.67;;;;;;;;119885;1190;25650;-62
2023/04/23 13:49:53;;;;;;;;;17.75;17.75;;;;;;;;119878;1190;25567;-61
2023/04/23 13:52:22;;;;;;;;;16.75;15.50;;;;;;;;119928;1190;25066;-61
2023/04/23 13:54:51;;;;;;;;;20.50;16.00;;;;;;;;119907;1190;25256;-67
2023/04/23 13:57:19;;;;;;;;;18.75;15.00;;;;;;;;119915;1190;25034;-62
2023/04/23 13:59:48;;;;;;;;;14.33;13.67;;;;;;;;119902;1191;25093;-62
2023/04/23 14:02:17;;;;;;;;;14.00;13.00;;;;;;;;119903;1191;25898;-62
2023/04/23 14:04:45;;;;;;;;;15.25;14.75;;;;;;;;119915;1191;25225;-62
2023/04/23 14:07:14;;;;;;;;;17.00;13.50;;;;;;;;119818;1191;25348;-65
2023/04/23 14:09:45;;;;;;;;;21.00;16.00;;;;;;;;119919;1191;25336;-66
2023/04/23 14:12:13;;;;;;;;;14.00;12.00;;;;;;;;119923;1182;25429;-66
2023/04/23 14:14:42;;;;;;;;;14.50;13.00;;;;;;;;119911;1191;25577;-66
2023/04/23 14:17:10;;;;;;;;;14.00;12.00;;;;;;;;119912;1179;25446;-65
2023/04/23 14:19:39;;;;;;;;;10.33;8.67;;;;;;;;119916;1191;25559;-65